MSC Rania — 3EEB3 — position and weather

sailwx.info

Track history (hours):
 
Tides and Currents Weather Stations Pressure Air Temp Water Temp Dewpoint Dewpoint Depression Visibility Wind Speed Wind Dir Waves Ship Positions

MSC Rania

Last reported at 2015-Aug-22 02:30 UTC. Time now 2015-Aug-29 07:24 UTC.
Position N 36°02' E 015°23'.

Length 332 m; draft 12.1 m.

Type: Ship (hazmat cat A). MMSI: 371752000.

Date/timePositionNaut miles runAvg speedWind from/ knotsBaromVisibWave heightAir tempDewpointWater temp
2015-Aug-22 02:30N 36°02' E 015°23'3115.6
2015-Aug-22 00:32N 36°13' E 014°48'1515.3
2015-Aug-21 23:33N 36°19' E 014°30'1515.4
2015-Aug-21 22:34N 36°24' E 014°13'1515.4
2015-Aug-21 21:34N 36°29' E 013°54'1615.7
2015-Aug-21 20:34N 36°34' E 013°36'1615.9
2015-Aug-21 19:34N 36°40' E 013°17'1615.6
2015-Aug-21 18:34N 36°44' E 012°59'1615.8
2015-Aug-21 17:34N 36°49' E 012°40'1616.0
2015-Aug-21 16:34N 36°54' E 012°21'1917.4
2015-Aug-21 15:29N 37°01' E 011°59'44418.5
2015-Aug-20 15:29N 37°04' E 002°42'1717.9
2015-Aug-20 14:31N 37°02' E 002°21'14618.3
2015-Aug-20 06:33N 36°34' W 000°39'1918.2
2015-Aug-20 05:31N 36°31' W 001°02'2317.9
2015-Aug-20 04:13N 36°26' W 001°30'1218.2
2015-Aug-20 03:33N 36°24' W 001°45'3818.2
2015-Aug-20 01:29N 36°19' W 002°31'1818.4
2015-Aug-20 00:31N 36°17' W 002°53'19419.4
2015-Aug-19 14:32N 35°50' W 006°50'3 2.6
2015-Aug-19 13:27N 35°50' W 006°54'0 0.4
2015-Aug-19 12:33N 35°51' W 006°54'38 4.7
2015-Aug-19 04:31N 35°54' W 007°40'1718.2
2015-Aug-19 03:33N 35°54' W 008°01'1817.7
2015-Aug-19 02:33N 35°56' W 008°23'1818.0
2015-Aug-19 01:33N 36°03' W 008°44'1818.3
2015-Aug-19 00:33N 36°09' W 009°05'9417.9
2015-Aug-18 19:18N 36°42' W 010°55'1317.8
2015-Aug-18 18:33N 36°46' W 011°10'2015.6
2015-Aug-18 17:17N 36°53' W 011°34'1315.1
2015-Aug-18 16:26N 36°57' W 011°49'56714.9
2015-Aug-17 02:24N 39°29' W 023°24'1815.5
2015-Aug-17 01:16N 39°33' W 023°46'1115.6
2015-Aug-17 00:34N 39°35' W 024°00'2015.7
2015-Aug-16 23:17N 39°39' W 024°26'1115.5
2015-Aug-16 22:33N 39°41' W 024°40'1515.3
2015-Aug-16 21:33N 39°44' W 024°59'1515.1
2015-Aug-16 20:33N 39°47' W 025°19'1515.3
2015-Aug-16 19:33N 39°50' W 025°38'1715.5
2015-Aug-16 18:28N 39°53' W 025°60'2115.4
2015-Aug-16 17:06N 39°56' W 026°27'1015.8
2015-Aug-16 16:29N 39°58' W 026°39'6215.9
2015-Aug-16 12:33N 40°08' W 027°60'2115.7
2015-Aug-16 11:12N 40°12' W 028°27'1015.3
2015-Aug-16 10:33N 40°13' W 028°40'1615.5
2015-Aug-16 09:32N 40°15' W 029°00'1715.7
2015-Aug-16 08:28N 40°17' W 029°22'1515.6
2015-Aug-16 07:33N 40°19' W 029°41'1615.8
2015-Aug-16 06:30N 40°22' W 030°02'6815.8
2015-Aug-16 02:11N 40°30' W 031°31'  
Track history (hours):
 
Tides and Currents Weather Stations Pressure Air Temp Water Temp Dewpoint Dewpoint Depression Visibility Wind Speed Wind Dir Waves Ship Positions

MSC Rania

Last reported at 2015-Aug-22 02:30 UTC. Time now 2015-Aug-29 07:24 UTC.
Position N 36°02' E 015°23'.

Length 332 m; draft 12.1 m.

Type: Ship (hazmat cat A). MMSI: 371752000.

Date/timePositionNaut miles runAvg speedWind from/ knotsBaromVisibWave heightAir tempDewpointWater temp
2015-Aug-22 02:30N 36°02' E 015°23'3115.6
2015-Aug-22 00:32N 36°13' E 014°48'1515.3
2015-Aug-21 23:33N 36°19' E 014°30'1515.4
2015-Aug-21 22:34N 36°24' E 014°13'1515.4
2015-Aug-21 21:34N 36°29' E 013°54'1615.7
2015-Aug-21 20:34N 36°34' E 013°36'1615.9
2015-Aug-21 19:34N 36°40' E 013°17'1615.6
2015-Aug-21 18:34N 36°44' E 012°59'1615.8
2015-Aug-21 17:34N 36°49' E 012°40'1616.0
2015-Aug-21 16:34N 36°54' E 012°21'1917.4
2015-Aug-21 15:29N 37°01' E 011°59'44418.5
2015-Aug-20 15:29N 37°04' E 002°42'1717.9
2015-Aug-20 14:31N 37°02' E 002°21'14618.3
2015-Aug-20 06:33N 36°34' W 000°39'1918.2
2015-Aug-20 05:31N 36°31' W 001°02'2317.9
2015-Aug-20 04:13N 36°26' W 001°30'1218.2
2015-Aug-20 03:33N 36°24' W 001°45'3818.2
2015-Aug-20 01:29N 36°19' W 002°31'1818.4
2015-Aug-20 00:31N 36°17' W 002°53'19419.4
2015-Aug-19 14:32N 35°50' W 006°50'3 2.6
2015-Aug-19 13:27N 35°50' W 006°54'0 0.4
2015-Aug-19 12:33N 35°51' W 006°54'38 4.7
2015-Aug-19 04:31N 35°54' W 007°40'1718.2
2015-Aug-19 03:33N 35°54' W 008°01'1817.7
2015-Aug-19 02:33N 35°56' W 008°23'1818.0
2015-Aug-19 01:33N 36°03' W 008°44'1818.3
2015-Aug-19 00:33N 36°09' W 009°05'9417.9
2015-Aug-18 19:18N 36°42' W 010°55'1317.8
2015-Aug-18 18:33N 36°46' W 011°10'2015.6
2015-Aug-18 17:17N 36°53' W 011°34'1315.1
2015-Aug-18 16:26N 36°57' W 011°49'56714.9
2015-Aug-17 02:24N 39°29' W 023°24'1815.5
2015-Aug-17 01:16N 39°33' W 023°46'1115.6
2015-Aug-17 00:34N 39°35' W 024°00'2015.7
2015-Aug-16 23:17N 39°39' W 024°26'1115.5
2015-Aug-16 22:33N 39°41' W 024°40'1515.3
2015-Aug-16 21:33N 39°44' W 024°59'1515.1
2015-Aug-16 20:33N 39°47' W 025°19'1515.3
2015-Aug-16 19:33N 39°50' W 025°38'1715.5
2015-Aug-16 18:28N 39°53' W 025°60'2115.4
2015-Aug-16 17:06N 39°56' W 026°27'1015.8
2015-Aug-16 16:29N 39°58' W 026°39'6215.9
2015-Aug-16 12:33N 40°08' W 027°60'2115.7
2015-Aug-16 11:12N 40°12' W 028°27'1015.3
2015-Aug-16 10:33N 40°13' W 028°40'1615.5
2015-Aug-16 09:32N 40°15' W 029°00'1715.7
2015-Aug-16 08:28N 40°17' W 029°22'1515.6
2015-Aug-16 07:33N 40°19' W 029°41'1615.8
2015-Aug-16 06:30N 40°22' W 030°02'6815.8
2015-Aug-16 02:11N 40°30' W 031°31'  

Dump ship's entire track history